Time;durP1;ratioP1;P1;durP2;ratioP2;P2;SDS_P1;SDS_P2;PMS_P1;PMS_P2;Temp;Humidity;BMP_temperature;BMP_pressure;BME280_temperature;BME280_humidity;BME280_pressure;Samples;Min_cycle;Max_cycle;Signal;HPM_P1;HPM_P2
2023/07/19 00:00:56;;;;;;;8.32;5.18;;;;;;;;;;5035976;28;20022;-77
2023/07/19 00:03:21;;;;;;;9.50;4.80;;;;;;;;;;5036412;28;20033;-77
2023/07/19 00:05:48;;;;;;;9.20;5.32;;;;;;;;;;5036516;28;20025;-78
2023/07/19 00:08:14;;;;;;;12.75;4.88;;;;;;;;;;5037181;28;20535;-78
2023/07/19 00:10:39;;;;;;;14.00;4.88;;;;;;;;;;5034879;28;20037;-76
2023/07/19 00:13:05;;;;;;;15.77;5.18;;;;;;;;;;5036098;28;20055;-77
2023/07/19 00:15:30;;;;;;;15.95;4.80;;;;;;;;;;5034773;28;20116;-77
2023/07/19 00:17:55;;;;;;;9.85;4.35;;;;;;;;;;5034254;28;20021;-77
2023/07/19 00:20:21;;;;;;;12.73;4.47;;;;;;;;;;5033758;28;20026;-77
2023/07/19 00:22:46;;;;;;;15.35;5.07;;;;;;;;;;5033171;28;20516;-77
2023/07/19 00:25:11;;;;;;;9.32;4.80;;;;;;;;;;5033680;28;20029;-77
2023/07/19 00:27:36;;;;;;;14.30;4.35;;;;;;;;;;5033926;28;20060;-77
2023/07/19 00:30:02;;;;;;;9.07;3.95;;;;;;;;;;5036107;28;20030;-77
2023/07/19 00:32:27;;;;;;;7.85;3.75;;;;;;;;;;5035928;28;20160;-76
2023/07/19 00:34:53;;;;;;;10.00;3.97;;;;;;;;;;5035389;28;20469;-78
2023/07/19 00:37:18;;;;;;;14.55;4.40;;;;;;;;;;5035929;28;20060;-77
2023/07/19 00:39:44;;;;;;;7.28;4.20;;;;;;;;;;5036897;28;20056;-77
2023/07/19 00:42:09;;;;;;;17.23;4.43;;;;;;;;;;5036514;28;20108;-80
2023/07/19 00:44:34;;;;;;;10.40;3.80;;;;;;;;;;5035924;28;20017;-76
2023/07/19 00:47:02;;;;;;;11.68;4.50;;;;;;;;;;5036091;28;20048;-76
2023/07/19 00:49:31;;;;;;;13.05;4.13;;;;;;;;;;5030626;28;20087;-77
2023/07/19 00:51:59;;;;;;;21.58;4.45;;;;;;;;;;5015148;28;20028;-74
2023/07/19 00:54:24;;;;;;;10.10;4.22;;;;;;;;;;5014541;28;20474;-76
2023/07/19 00:56:50;;;;;;;14.57;4.22;;;;;;;;;;5016289;28;20034;-78
2023/07/19 00:59:16;;;;;;;14.30;4.32;;;;;;;;;;5017876;28;20084;-79
2023/07/19 01:01:44;;;;;;;11.32;4.40;;;;;;;;;;5049132;28;20017;-78
2023/07/19 01:04:10;;;;;;;11.18;3.90;;;;;;;;;;5037141;28;20044;-79
2023/07/19 01:06:35;;;;;;;13.07;3.92;;;;;;;;;;5031340;28;20097;-78
2023/07/19 01:09:00;;;;;;;12.25;3.92;;;;;;;;;;5032343;28;20552;-79
2023/07/19 01:11:26;;;;;;;11.70;4.13;;;;;;;;;;5017346;28;20057;-79
2023/07/19 01:13:52;;;;;;;16.20;4.57;;;;;;;;;;5033324;28;20030;-77
2023/07/19 01:16:18;;;;;;;13.60;4.55;;;;;;;;;;5017817;28;20080;-79
2023/07/19 01:18:44;;;;;;;10.75;4.57;;;;;;;;;;5016210;28;20480;-79
2023/07/19 01:21:09;;;;;;;11.10;4.20;;;;;;;;;;5018081;28;20037;-78
2023/07/19 01:23:34;;;;;;;17.48;4.47;;;;;;;;;;5033479;28;20087;-79
2023/07/19 01:26:00;;;;;;;17.10;4.38;;;;;;;;;;5017255;28;20057;-78
2023/07/19 01:28:25;;;;;;;14.45;5.07;;;;;;;;;;5017850;28;20513;-78
2023/07/19 01:30:50;;;;;;;14.60;4.45;;;;;;;;;;5016950;28;20129;-76
2023/07/19 01:33:16;;;;;;;19.58;4.88;;;;;;;;;;5016845;28;20030;-77
2023/07/19 01:35:41;;;;;;;19.77;5.15;;;;;;;;;;5033151;28;20032;-78
2023/07/19 01:38:06;;;;;;;14.35;4.38;;;;;;;;;;5037228;28;20032;-78
2023/07/19 01:40:31;;;;;;;7.85;3.67;;;;;;;;;;5037060;28;20032;-78
2023/07/19 01:42:57;;;;;;;15.77;4.40;;;;;;;;;;5037167;28;20025;-78
2023/07/19 01:45:22;;;;;;;11.75;4.65;;;;;;;;;;5037278;28;20027;-77
2023/07/19 01:47:47;;;;;;;9.65;4.35;;;;;;;;;;5035907;28;20125;-78
2023/07/19 01:50:13;;;;;;;13.70;5.35;;;;;;;;;;5036627;28;20091;-78
2023/07/19 01:52:39;;;;;;;12.32;4.90;;;;;;;;;;5033110;28;20025;-78
2023/07/19 01:55:06;;;;;;;14.82;4.70;;;;;;;;;;5017580;28;20548;-78
2023/07/19 01:57:31;;;;;;;16.10;4.53;;;;;;;;;;5016805;28;20025;-78
2023/07/19 01:59:57;;;;;;;11.52;4.10;;;;;;;;;;5013827;28;20030;-76
2023/07/19 02:02:22;;;;;;;17.25;4.85;;;;;;;;;;5011501;28;20073;-78
2023/07/19 02:04:47;;;;;;;15.90;5.13;;;;;;;;;;5031229;28;20025;-77
2023/07/19 02:07:13;;;;;;;10.70;4.68;;;;;;;;;;5016104;28;20022;-78
2023/07/19 02:09:39;;;;;;;14.30;4.78;;;;;;;;;;5018605;28;20028;-78
2023/07/19 02:12:05;;;;;;;12.85;4.75;;;;;;;;;;5035100;28;20026;-78
2023/07/19 02:14:30;;;;;;;11.73;5.30;;;;;;;;;;5036433;28;20033;-78
2023/07/19 02:16:56;;;;;;;15.23;5.13;;;;;;;;;;5034049;28;20029;-78
2023/07/19 02:19:21;;;;;;;22.23;4.75;;;;;;;;;;5035026;28;20096;-78
2023/07/19 02:21:46;;;;;;;13.25;4.97;;;;;;;;;;5031709;28;20074;-75
2023/07/19 02:24:12;;;;;;;12.32;4.55;;;;;;;;;;5033510;28;20489;-78
2023/07/19 02:26:37;;;;;;;10.30;4.40;;;;;;;;;;5035719;28;20053;-77
2023/07/19 02:29:02;;;;;;;10.70;4.63;;;;;;;;;;5035776;28;20037;-78
2023/07/19 02:31:28;;;;;;;14.05;5.00;;;;;;;;;;5024991;28;20029;-80
2023/07/19 02:33:53;;;;;;;15.65;5.35;;;;;;;;;;5031359;28;20575;-77
2023/07/19 02:36:18;;;;;;;10.43;4.78;;;;;;;;;;5015911;28;20105;-79
2023/07/19 02:38:44;;;;;;;12.80;5.05;;;;;;;;;;5031706;28;20032;-78
2023/07/19 02:41:10;;;;;;;14.48;5.35;;;;;;;;;;5015600;28;20030;-79
2023/07/19 02:43:35;;;;;;;13.82;5.43;;;;;;;;;;5016424;28;20086;-79
2023/07/19 02:46:01;;;;;;;13.30;5.10;;;;;;;;;;5030797;28;20057;-79
2023/07/19 02:48:26;;;;;;;13.93;4.93;;;;;;;;;;5026171;28;20513;-76
2023/07/19 02:50:51;;;;;;;13.32;5.40;;;;;;;;;;5031053;28;20024;-76
2023/07/19 02:53:17;;;;;;;13.68;5.28;;;;;;;;;;5030569;28;20036;-76
2023/07/19 02:55:43;;;;;;;12.50;5.20;;;;;;;;;;5029192;28;20370;-75
2023/07/19 02:58:09;;;;;;;12.35;5.00;;;;;;;;;;5030120;28;20682;-76
2023/07/19 03:00:39;;;;;;;10.18;5.25;;;;;;;;;;5032849;28;20059;-75
2023/07/19 03:03:05;;;;;;;10.77;5.30;;;;;;;;;;5030177;28;20029;-79
2023/07/19 03:05:30;;;;;;;11.68;4.82;;;;;;;;;;5029784;28;20056;-76
2023/07/19 03:07:55;;;;;;;13.18;5.32;;;;;;;;;;5032777;28;20025;-78
2023/07/19 03:10:21;;;;;;;12.05;5.15;;;;;;;;;;5031943;28;20025;-75
2023/07/19 03:12:46;;;;;;;14.25;5.88;;;;;;;;;;5029963;28;20025;-76
2023/07/19 03:15:12;;;;;;;12.50;6.00;;;;;;;;;;5029855;28;20045;-76
2023/07/19 03:17:38;;;;;;;10.02;5.28;;;;;;;;;;5029784;28;20083;-75
2023/07/19 03:20:04;;;;;;;20.70;6.05;;;;;;;;;;5028352;28;20025;-75
2023/07/19 03:22:29;;;;;;;11.18;5.00;;;;;;;;;;5029152;28;20114;-77
2023/07/19 03:24:54;;;;;;;12.68;4.82;;;;;;;;;;5029804;28;20029;-77
2023/07/19 03:27:20;;;;;;;13.15;5.15;;;;;;;;;;5029775;28;20018;-76
2023/07/19 03:29:45;;;;;;;10.70;5.03;;;;;;;;;;5025177;28;20120;-77
2023/07/19 03:32:10;;;;;;;11.73;4.95;;;;;;;;;;5014702;28;20063;-79
2023/07/19 03:34:36;;;;;;;9.35;4.50;;;;;;;;;;5014234;28;20383;-77
2023/07/19 03:37:01;;;;;;;8.45;4.88;;;;;;;;;;5013640;28;20065;-77
2023/07/19 03:39:26;;;;;;;13.43;4.93;;;;;;;;;;5012743;28;20033;-76
2023/07/19 03:41:52;;;;;;;10.77;4.65;;;;;;;;;;5013580;28;20025;-77
2023/07/19 03:44:17;;;;;;;8.38;4.80;;;;;;;;;;5014026;28;20033;-77
2023/07/19 03:46:43;;;;;;;12.90;5.05;;;;;;;;;;5011975;28;20040;-76
2023/07/19 03:49:08;;;;;;;18.73;4.47;;;;;;;;;;5024225;28;20040;-76
2023/07/19 03:51:34;;;;;;;16.45;5.35;;;;;;;;;;5033508;28;20144;-76
2023/07/19 03:53:59;;;;;;;11.68;5.32;;;;;;;;;;5033753;28;20088;-76
2023/07/19 03:56:25;;;;;;;9.43;4.88;;;;;;;;;;5033340;28;20032;-75
2023/07/19 03:58:50;;;;;;;8.40;4.78;;;;;;;;;;5031603;28;20059;-77
2023/07/19 04:01:16;;;;;;;15.30;5.68;;;;;;;;;;5029895;28;20486;-75
2023/07/19 04:03:41;;;;;;;10.75;4.57;;;;;;;;;;5024636;28;20035;-74
2023/07/19 04:06:07;;;;;;;10.50;4.65;;;;;;;;;;5024168;28;20394;-74
2023/07/19 04:08:33;;;;;;;8.95;4.60;;;;;;;;;;5020707;28;20380;-75
2023/07/19 04:10:59;;;;;;;11.55;4.72;;;;;;;;;;5025325;28;20038;-75
2023/07/19 04:13:26;;;;;;;12.23;4.43;;;;;;;;;;5025611;28;20021;-76
2023/07/19 04:15:51;;;;;;;10.25;4.55;;;;;;;;;;5024727;28;20022;-75
2023/07/19 04:18:16;;;;;;;16.38;5.07;;;;;;;;;;5020818;28;20033;-76
2023/07/19 04:20:42;;;;;;;9.38;4.18;;;;;;;;;;5026491;28;20025;-75
2023/07/19 04:23:07;;;;;;;6.32;4.45;;;;;;;;;;5021160;28;20032;-77
2023/07/19 04:25:32;;;;;;;9.32;4.93;;;;;;;;;;5025313;28;20420;-75
2023/07/19 04:27:58;;;;;;;14.77;5.53;;;;;;;;;;5024826;28;20021;-76
2023/07/19 04:30:23;;;;;;;19.30;5.45;;;;;;;;;;5025724;28;20048;-75
2023/07/19 04:32:51;;;;;;;11.32;4.30;;;;;;;;;;5022832;28;20277;-76
2023/07/19 04:35:17;;;;;;;15.73;5.28;;;;;;;;;;5025459;28;20658;-76
2023/07/19 04:37:42;;;;;;;11.85;5.22;;;;;;;;;;5020358;28;20041;-76
2023/07/19 04:40:10;;;;;;;13.18;5.03;;;;;;;;;;5026139;28;20109;-76
2023/07/19 04:42:36;;;;;;;9.38;5.00;;;;;;;;;;5019157;28;20025;-76
2023/07/19 04:45:01;;;;;;;10.45;4.70;;;;;;;;;;5023987;28;20187;-76
2023/07/19 04:47:26;;;;;;;12.73;5.03;;;;;;;;;;5021283;28;20026;-76
2023/07/19 04:49:52;;;;;;;10.65;5.25;;;;;;;;;;5020688;28;20409;-76
2023/07/19 04:52:17;;;;;;;11.68;4.95;;;;;;;;;;5018927;28;20048;-76
2023/07/19 04:54:42;;;;;;;7.60;4.85;;;;;;;;;;5023892;28;20113;-76
2023/07/19 04:57:08;;;;;;;6.53;4.90;;;;;;;;;;5021839;28;20079;-76
2023/07/19 04:59:33;;;;;;;16.67;5.03;;;;;;;;;;5020198;28;20064;-77
2023/07/19 05:01:58;;;;;;;8.48;4.80;;;;;;;;;;5021874;28;20754;-76
2023/07/19 05:04:24;;;;;;;11.93;4.70;;;;;;;;;;5020620;28;20034;-74
2023/07/19 05:06:52;;;;;;;17.17;5.00;;;;;;;;;;5021427;28;20029;-75
2023/07/19 05:09:17;;;;;;;6.95;4.28;;;;;;;;;;5019194;28;20325;-74
2023/07/19 05:11:43;;;;;;;14.27;5.03;;;;;;;;;;5023723;28;20221;-74
2023/07/19 05:14:08;;;;;;;10.43;4.65;;;;;;;;;;5021570;28;20413;-74
2023/07/19 05:16:34;;;;;;;12.40;4.63;;;;;;;;;;5024548;28;20056;-74
2023/07/19 05:19:00;;;;;;;12.77;5.25;;;;;;;;;;5025375;28;20061;-76
2023/07/19 05:21:25;;;;;;;11.57;5.10;;;;;;;;;;5025353;28;20045;-73
2023/07/19 05:23:50;;;;;;;8.02;4.75;;;;;;;;;;5019734;28;20496;-74
2023/07/19 05:26:16;;;;;;;7.55;4.85;;;;;;;;;;5020616;28;20028;-75
2023/07/19 05:28:42;;;;;;;13.68;4.85;;;;;;;;;;5022949;28;20024;-74
2023/07/19 05:31:10;;;;;;;11.27;4.88;;;;;;;;;;5008543;28;20163;-73
2023/07/19 05:33:35;;;;;;;9.10;4.60;;;;;;;;;;5027344;28;20087;-76
2023/07/19 05:36:01;;;;;;;9.32;5.35;;;;;;;;;;5011749;28;20050;-74
2023/07/19 05:38:27;;;;;;;10.68;5.15;;;;;;;;;;5012530;28;20063;-74
2023/07/19 05:40:59;;;;;;;11.25;5.75;;;;;;;;;;5025718;28;20033;-77
2023/07/19 05:43:24;;;;;;;9.68;5.32;;;;;;;;;;5017065;28;20401;-77
2023/07/19 05:45:50;;;;;;;8.85;5.22;;;;;;;;;;5030593;28;20021;-75
2023/07/19 05:48:15;;;;;;;9.23;5.55;;;;;;;;;;5012949;28;20022;-75
2023/07/19 05:50:40;;;;;;;9.93;4.85;;;;;;;;;;5014504;28;20631;-75
2023/07/19 05:53:05;;;;;;;12.55;6.20;;;;;;;;;;5016076;28;20156;-75
2023/07/19 05:55:31;;;;;;;9.73;5.30;;;;;;;;;;5015116;28;20029;-75
2023/07/19 05:57:56;;;;;;;12.90;5.20;;;;;;;;;;4994973;28;20036;-75
2023/07/19 06:00:28;;;;;;;11.85;4.90;;;;;;;;;;5014882;28;20026;-77
2023/07/19 06:02:54;;;;;;;12.02;4.78;;;;;;;;;;5008336;28;20504;-76
2023/07/19 06:05:20;;;;;;;11.45;5.10;;;;;;;;;;5014703;28;20064;-76
2023/07/19 06:07:46;;;;;;;8.32;4.93;;;;;;;;;;5010930;28;20050;-76
2023/07/19 06:10:12;;;;;;;12.38;5.25;;;;;;;;;;5006774;28;20033;-76
2023/07/19 06:12:38;;;;;;;13.52;4.85;;;;;;;;;;5016649;28;20030;-76
2023/07/19 06:15:04;;;;;;;7.60;4.93;;;;;;;;;;5019403;28;20025;-76
2023/07/19 06:17:29;;;;;;;10.48;5.28;;;;;;;;;;5016489;28;20171;-76
2023/07/19 06:19:54;;;;;;;12.38;5.18;;;;;;;;;;5005280;28;20443;-76
2023/07/19 06:22:20;;;;;;;10.85;4.90;;;;;;;;;;5009080;28;20041;-76
2023/07/19 06:24:45;;;;;;;7.45;5.25;;;;;;;;;;5011279;28;20112;-76
2023/07/19 06:27:10;;;;;;;14.18;5.22;;;;;;;;;;5008731;28;20120;-76
2023/07/19 06:29:36;;;;;;;9.77;4.95;;;;;;;;;;5033204;28;20039;-76
2023/07/19 06:32:01;;;;;;;9.02;4.95;;;;;;;;;;5007331;28;20120;-76
2023/07/19 06:34:26;;;;;;;8.90;5.28;;;;;;;;;;5017272;28;20440;-77
2023/07/19 06:36:52;;;;;;;8.18;4.75;;;;;;;;;;5009047;28;20216;-76
2023/07/19 06:39:17;;;;;;;9.05;5.13;;;;;;;;;;5017508;28;20017;-76
2023/07/19 06:41:42;;;;;;;15.45;4.90;;;;;;;;;;5008789;28;20031;-76
2023/07/19 06:44:08;;;;;;;5.78;4.32;;;;;;;;;;5006350;28;20044;-76
2023/07/19 06:46:33;;;;;;;9.10;5.25;;;;;;;;;;5006961;28;20068;-76
2023/07/19 06:48:58;;;;;;;6.32;4.95;;;;;;;;;;5007672;28;20061;-76
2023/07/19 06:51:23;;;;;;;7.97;4.25;;;;;;;;;;5006711;28;20026;-76
2023/07/19 06:53:49;;;;;;;8.57;3.80;;;;;;;;;;5007279;28;20037;-76
2023/07/19 06:56:14;;;;;;;10.85;4.55;;;;;;;;;;5008466;28;20105;-76
2023/07/19 06:58:39;;;;;;;6.35;4.60;;;;;;;;;;5004109;28;20029;-77
2023/07/19 07:01:05;;;;;;;6.47;4.40;;;;;;;;;;5018921;28;20535;-76
2023/07/19 07:03:31;;;;;;;10.88;4.43;;;;;;;;;;5007776;28;20021;-77
2023/07/19 07:05:58;;;;;;;9.20;4.43;;;;;;;;;;5008582;28;20108;-76
2023/07/19 07:08:23;;;;;;;5.57;3.70;;;;;;;;;;5006302;28;20033;-77
2023/07/19 07:10:48;;;;;;;8.43;3.97;;;;;;;;;;5011929;28;20034;-77
2023/07/19 07:13:14;;;;;;;8.93;4.20;;;;;;;;;;5013275;28;20036;-77
2023/07/19 07:15:40;;;;;;;6.88;3.80;;;;;;;;;;5019140;28;20378;-76
2023/07/19 07:18:05;;;;;;;6.93;4.00;;;;;;;;;;5012777;28;20022;-76
2023/07/19 07:20:34;;;;;;;9.38;4.28;;;;;;;;;;5016980;28;20591;-76
2023/07/19 07:22:59;;;;;;;15.23;4.03;;;;;;;;;;5012131;28;20029;-76
2023/07/19 07:25:24;;;;;;;5.78;4.05;;;;;;;;;;5016255;28;20475;-76
2023/07/19 07:27:50;;;;;;;9.13;3.88;;;;;;;;;;5016290;28;20028;-76
2023/07/19 07:30:15;;;;;;;6.05;4.30;;;;;;;;;;5016692;28;20072;-77
2023/07/19 07:32:41;;;;;;;8.02;3.80;;;;;;;;;;5014870;28;20359;-77
2023/07/19 07:35:06;;;;;;;8.90;4.07;;;;;;;;;;5027363;28;20030;-76
2023/07/19 07:37:32;;;;;;;5.72;3.70;;;;;;;;;;4986803;28;20064;-76
2023/07/19 07:39:57;;;;;;;5.28;3.60;;;;;;;;;;4987299;28;20411;-76
2023/07/19 07:42:24;;;;;;;8.98;3.78;;;;;;;;;;5013034;28;20037;-76
2023/07/19 07:44:49;;;;;;;6.57;3.65;;;;;;;;;;5012594;28;20117;-75
2023/07/19 07:47:15;;;;;;;15.68;5.22;;;;;;;;;;5013187;28;20100;-76
2023/07/19 07:49:40;;;;;;;8.65;3.95;;;;;;;;;;5013139;28;20079;-76
2023/07/19 07:52:06;;;;;;;7.55;4.00;;;;;;;;;;5010511;28;20037;-76
2023/07/19 07:54:32;;;;;;;8.35;3.83;;;;;;;;;;5008600;28;20025;-76
2023/07/19 07:56:57;;;;;;;10.85;3.97;;;;;;;;;;5014401;28;20052;-76
2023/07/19 07:59:22;;;;;;;9.32;3.97;;;;;;;;;;5013058;28;20037;-76
2023/07/19 08:01:48;;;;;;;8.10;3.80;;;;;;;;;;5005244;28;20247;-76
2023/07/19 08:04:13;;;;;;;7.47;3.92;;;;;;;;;;5023923;28;20091;-76
2023/07/19 08:06:38;;;;;;;5.68;3.83;;;;;;;;;;5010166;28;20034;-76
2023/07/19 08:09:04;;;;;;;5.20;3.50;;;;;;;;;;5006387;28;20030;-76
2023/07/19 08:11:31;;;;;;;6.32;4.05;;;;;;;;;;5007243;28;20654;-76
2023/07/19 08:13:57;;;;;;;4.65;3.75;;;;;;;;;;5012793;28;20101;-76
2023/07/19 08:16:22;;;;;;;6.85;3.90;;;;;;;;;;5013701;28;20629;-76
2023/07/19 08:18:48;;;;;;;5.13;3.63;;;;;;;;;;5013459;28;20026;-76
2023/07/19 08:21:13;;;;;;;6.93;3.97;;;;;;;;;;5013741;28;20414;-76
2023/07/19 08:23:38;;;;;;;7.25;3.53;;;;;;;;;;5030980;28;20489;-76
2023/07/19 08:26:03;;;;;;;9.98;3.72;;;;;;;;;;5024578;28;20018;-76
2023/07/19 08:28:29;;;;;;;6.75;3.95;;;;;;;;;;5017769;28;20099;-76
2023/07/19 08:30:55;;;;;;;6.15;3.88;;;;;;;;;;5014328;28;20388;-76
2023/07/19 08:33:24;;;;;;;8.70;3.50;;;;;;;;;;5018518;28;20029;-76
2023/07/19 08:35:50;;;;;;;6.65;4.20;;;;;;;;;;5018509;28;20525;-76
2023/07/19 08:38:16;;;;;;;9.13;4.05;;;;;;;;;;5015542;28;20030;-76
2023/07/19 08:41:02;;;;;;;5.82;4.05;;;;;;;;;;5009914;28;20485;-76
2023/07/19 08:43:28;;;;;;;6.05;3.90;;;;;;;;;;5003528;28;20082;-76
2023/07/19 08:45:55;;;;;;;5.82;3.75;;;;;;;;;;5023444;28;20033;-76
2023/07/19 08:48:20;;;;;;;5.95;3.92;;;;;;;;;;5003104;28;20029;-75
2023/07/19 08:50:53;;;;;;;5.68;3.47;;;;;;;;;;5006093;28;20037;-76
2023/07/19 08:53:19;;;;;;;5.30;3.95;;;;;;;;;;5008541;28;20497;-76
2023/07/19 08:55:44;;;;;;;9.52;3.95;;;;;;;;;;5004694;28;20083;-76
2023/07/19 08:58:09;;;;;;;9.63;3.53;;;;;;;;;;5005730;28;20995;-76
2023/07/19 09:00:35;;;;;;;10.52;3.88;;;;;;;;;;5011431;28;20556;-76
2023/07/19 09:03:00;;;;;;;6.15;3.80;;;;;;;;;;5006215;28;20065;-76
2023/07/19 09:05:29;;;;;;;11.45;4.00;;;;;;;;;;5004781;28;20037;-75
2023/07/19 09:07:59;;;;;;;4.88;3.60;;;;;;;;;;5013807;28;20041;-76
2023/07/19 09:10:25;;;;;;;5.45;4.07;;;;;;;;;;5010653;28;20072;-75
2023/07/19 09:12:50;;;;;;;4.93;3.58;;;;;;;;;;5014010;28;20472;-75
2023/07/19 09:15:16;;;;;;;6.60;4.03;;;;;;;;;;5016761;28;20025;-75
2023/07/19 09:17:43;;;;;;;6.30;4.00;;;;;;;;;;5016344;28;20033;-75
2023/07/19 09:20:09;;;;;;;6.85;3.67;;;;;;;;;;5014063;28;20021;-75
2023/07/19 09:22:36;;;;;;;6.53;3.67;;;;;;;;;;5012504;28;20535;-75
2023/07/19 09:25:03;;;;;;;6.13;3.70;;;;;;;;;;5012219;28;20030;-75
2023/07/19 09:27:29;;;;;;;6.40;3.60;;;;;;;;;;5007393;28;20018;-75
2023/07/19 09:29:55;;;;;;;8.40;4.10;;;;;;;;;;5013845;28;20036;-75
2023/07/19 09:32:22;;;;;;;6.47;4.25;;;;;;;;;;5019904;28;20029;-75
2023/07/19 09:34:52;;;;;;;6.32;3.70;;;;;;;;;;5014990;28;20017;-75
2023/07/19 09:37:20;;;;;;;4.03;3.65;;;;;;;;;;5012365;28;20104;-75
2023/07/19 09:39:45;;;;;;;7.53;3.90;;;;;;;;;;5009117;28;20099;-75
2023/07/19 09:42:13;;;;;;;8.60;3.88;;;;;;;;;;5013917;28;20033;-75
2023/07/19 09:44:39;;;;;;;10.30;4.18;;;;;;;;;;5005701;28;20048;-76
2023/07/19 09:47:08;;;;;;;5.18;3.47;;;;;;;;;;5016680;28;20101;-76
2023/07/19 09:49:34;;;;;;;8.43;4.45;;;;;;;;;;5007201;28;20397;-76
2023/07/19 09:52:01;;;;;;;9.15;4.32;;;;;;;;;;5013885;28;20018;-76
2023/07/19 09:54:30;;;;;;;6.35;4.00;;;;;;;;;;5015707;28;20029;-76
2023/07/19 09:56:56;;;;;;;5.32;3.72;;;;;;;;;;5014232;28;20025;-77
2023/07/19 09:59:33;;;;;;;10.38;4.10;;;;;;;;;;5011130;28;20430;-76
2023/07/19 10:02:00;;;;;;;8.43;4.20;;;;;;;;;;5023358;28;20360;-76
2023/07/19 10:04:27;;;;;;;5.28;3.95;;;;;;;;;;5005523;28;20512;-76
2023/07/19 10:07:14;;;;;;;14.10;4.38;;;;;;;;;;5011796;28;20037;-76
2023/07/19 10:09:45;;;;;;;6.10;4.00;;;;;;;;;;5003440;28;20036;-74
2023/07/19 10:12:16;;;;;;;7.53;3.85;;;;;;;;;;5007894;28;20370;-75
2023/07/19 10:15:05;;;;;;;4.72;3.42;;;;;;;;;;5014705;28;20425;-76
2023/07/19 10:17:59;;;;;;;5.63;3.58;;;;;;;;;;5020785;28;20025;-77
2023/07/19 10:20:35;;;;;;;12.80;4.05;;;;;;;;;;5022292;28;20049;-76
2023/07/19 10:23:05;;;;;;;6.35;3.53;;;;;;;;;;5014412;28;20066;-75
2023/07/19 10:25:37;;;;;;;5.82;3.95;;;;;;;;;;5025727;28;20105;-75
2023/07/19 10:28:02;;;;;;;6.20;3.50;;;;;;;;;;5011561;28;20025;-76
2023/07/19 10:30:47;;;;;;;5.53;4.00;;;;;;;;;;5030357;28;20108;-75
2023/07/19 10:33:14;;;;;;;7.15;4.18;;;;;;;;;;5008144;28;20498;-75
2023/07/19 10:35:40;;;;;;;6.95;3.78;;;;;;;;;;5009116;28;20112;-75
2023/07/19 10:38:12;;;;;;;6.03;3.50;;;;;;;;;;5014580;28;20510;-78
2023/07/19 10:40:37;;;;;;;9.98;3.92;;;;;;;;;;5028775;28;20504;-75
2023/07/19 10:43:02;;;;;;;5.65;4.13;;;;;;;;;;5015336;28;20571;-76
2023/07/19 10:45:29;;;;;;;5.18;4.38;;;;;;;;;;5029602;28;20025;-76
2023/07/19 10:47:59;;;;;;;5.97;3.75;;;;;;;;;;5015402;28;20032;-75
2023/07/19 10:50:24;;;;;;;5.28;3.60;;;;;;;;;;5010727;28;20136;-76
2023/07/19 10:52:50;;;;;;;10.25;4.13;;;;;;;;;;5019910;28;20033;-75
2023/07/19 10:55:15;;;;;;;6.10;4.20;;;;;;;;;;5028623;28;20030;-76
2023/07/19 10:57:41;;;;;;;8.50;3.80;;;;;;;;;;5017268;28;20108;-75
2023/07/19 11:00:12;;;;;;;5.80;3.95;;;;;;;;;;5016187;28;20092;-76
2023/07/19 11:02:41;;;;;;;10.20;4.22;;;;;;;;;;5026923;28;20084;-75
2023/07/19 11:05:07;;;;;;;13.85;3.85;;;;;;;;;;5016283;28;20079;-75
2023/07/19 11:07:34;;;;;;;4.55;3.97;;;;;;;;;;5016998;28;20052;-78
2023/07/19 11:10:00;;;;;;;7.72;4.35;;;;;;;;;;5009394;28;20109;-75
2023/07/19 11:12:26;;;;;;;8.35;4.13;;;;;;;;;;5019110;28;20347;-76
2023/07/19 11:15:00;;;;;;;11.27;4.72;;;;;;;;;;4998029;28;20021;-75
2023/07/19 11:17:27;;;;;;;13.73;3.92;;;;;;;;;;5017885;28;20057;-75
2023/07/19 11:19:53;;;;;;;9.48;3.97;;;;;;;;;;5024787;28;20532;-75
2023/07/19 11:22:23;;;;;;;7.65;4.97;;;;;;;;;;5009074;28;20135;-75
2023/07/19 11:24:49;;;;;;;9.73;3.95;;;;;;;;;;5021088;28;20072;-75
2023/07/19 11:27:16;;;;;;;6.45;3.90;;;;;;;;;;5014247;28;20044;-76
2023/07/19 11:29:43;;;;;;;9.57;4.47;;;;;;;;;;5012721;28;20571;-76
2023/07/19 11:32:13;;;;;;;9.23;4.40;;;;;;;;;;5009216;28;20043;-75
2023/07/19 11:34:50;;;;;;;10.75;3.67;;;;;;;;;;5016167;28;20032;-75
2023/07/19 11:37:19;;;;;;;5.88;3.83;;;;;;;;;;5013479;28;20534;-76
2023/07/19 11:39:46;;;;;;;5.75;3.90;;;;;;;;;;5016102;28;20033;-76
2023/07/19 11:42:12;;;;;;;7.38;4.32;;;;;;;;;;5010541;28;20121;-76
2023/07/19 11:44:44;;;;;;;7.05;3.80;;;;;;;;;;5015514;28;20549;-75
2023/07/19 11:47:10;;;;;;;6.50;4.13;;;;;;;;;;5007692;28;20018;-76
2023/07/19 11:49:35;;;;;;;8.02;4.07;;;;;;;;;;5035549;28;20478;-75
2023/07/19 11:52:00;;;;;;;11.90;3.88;;;;;;;;;;5014431;28;20565;-76
2023/07/19 11:54:26;;;;;;;4.22;3.42;;;;;;;;;;5016405;28;20032;-76
2023/07/19 11:56:51;;;;;;;8.23;3.72;;;;;;;;;;5015727;28;20068;-76
2023/07/19 11:59:16;;;;;;;8.38;3.65;;;;;;;;;;5014302;28;20028;-76
2023/07/19 12:01:42;;;;;;;7.50;3.92;;;;;;;;;;5011030;28;20072;-76
2023/07/19 12:04:07;;;;;;;10.70;4.90;;;;;;;;;;5012596;28;20025;-77
2023/07/19 12:06:32;;;;;;;11.90;5.10;;;;;;;;;;5014348;28;20050;-77
2023/07/19 12:08:58;;;;;;;9.48;4.70;;;;;;;;;;5022529;28;20024;-77
2023/07/19 12:11:24;;;;;;;10.85;5.05;;;;;;;;;;5023906;28;20029;-78
2023/07/19 12:13:49;;;;;;;7.80;4.35;;;;;;;;;;5014324;28;20034;-78
2023/07/19 12:16:16;;;;;;;6.53;4.30;;;;;;;;;;5019181;28;20523;-77
2023/07/19 12:18:42;;;;;;;11.13;4.38;;;;;;;;;;5018554;28;20394;-78
2023/07/19 12:21:07;;;;;;;4.47;3.83;;;;;;;;;;5018219;28;20028;-77
2023/07/19 12:23:33;;;;;;;5.82;3.92;;;;;;;;;;5019579;28;20037;-77
2023/07/19 12:25:58;;;;;;;5.70;3.72;;;;;;;;;;5013079;28;20082;-77
2023/07/19 12:28:23;;;;;;;6.05;3.67;;;;;;;;;;5018179;28;20021;-77
2023/07/19 12:30:50;;;;;;;4.10;3.70;;;;;;;;;;5021584;28;20474;-77
2023/07/19 12:33:15;;;;;;;5.97;3.80;;;;;;;;;;5024194;28;20489;-77
2023/07/19 12:35:43;;;;;;;6.85;3.40;;;;;;;;;;5017947;28;20029;-77
2023/07/19 12:38:08;;;;;;;3.90;3.40;;;;;;;;;;5016890;28;20025;-78
2023/07/19 12:40:33;;;;;;;5.82;3.50;;;;;;;;;;5016272;28;20055;-77
2023/07/19 12:42:59;;;;;;;7.07;3.67;;;;;;;;;;5016719;28;20022;-77
2023/07/19 12:45:24;;;;;;;5.15;3.65;;;;;;;;;;5018778;28;20064;-77
2023/07/19 12:47:50;;;;;;;4.03;3.50;;;;;;;;;;5018266;28;20061;-76
2023/07/19 12:50:15;;;;;;;5.80;3.55;;;;;;;;;;5012889;28;20044;-76
2023/07/19 12:52:44;;;;;;;10.13;3.92;;;;;;;;;;5016322;28;20068;-76
2023/07/19 12:55:09;;;;;;;4.82;3.40;;;;;;;;;;5015193;28;20056;-76
2023/07/19 12:57:35;;;;;;;5.65;3.63;;;;;;;;;;5016312;28;20049;-76
2023/07/19 13:00:00;;;;;;;12.45;4.30;;;;;;;;;;5016662;28;20072;-75
2023/07/19 13:02:26;;;;;;;9.10;3.72;;;;;;;;;;5019867;28;20033;-75
2023/07/19 13:04:51;;;;;;;3.50;3.20;;;;;;;;;;5020571;28;20010;-75
2023/07/19 13:07:16;;;;;;;4.10;3.42;;;;;;;;;;5023904;28;20386;-75
2023/07/19 13:09:42;;;;;;;6.82;3.78;;;;;;;;;;5019180;28;20489;-75
2023/07/19 13:12:08;;;;;;;5.50;3.95;;;;;;;;;;5027069;28;20053;-76
2023/07/19 13:14:34;;;;;;;5.70;3.75;;;;;;;;;;5018749;28;20033;-75
2023/07/19 13:17:00;;;;;;;8.00;4.00;;;;;;;;;;5031517;28;20029;-76
2023/07/19 13:19:25;;;;;;;8.07;3.75;;;;;;;;;;5014594;28;20465;-79
2023/07/19 13:21:51;;;;;;;7.63;3.67;;;;;;;;;;5021171;28;20052;-76
2023/07/19 13:24:16;;;;;;;6.53;4.35;;;;;;;;;;5013077;28;20053;-76
2023/07/19 13:26:43;;;;;;;4.75;4.15;;;;;;;;;;5027496;28;20037;-76
2023/07/19 13:29:09;;;;;;;5.35;3.40;;;;;;;;;;5012799;28;20035;-76
2023/07/19 13:31:34;;;;;;;5.63;3.60;;;;;;;;;;5010414;28;20033;-76
2023/07/19 13:34:00;;;;;;;5.25;3.63;;;;;;;;;;5018141;28;20108;-75
2023/07/19 13:36:28;;;;;;;5.00;3.80;;;;;;;;;;5021875;28;20071;-75
2023/07/19 13:38:55;;;;;;;6.57;3.75;;;;;;;;;;5013508;28;20548;-75
2023/07/19 13:41:20;;;;;;;6.72;3.88;;;;;;;;;;5014794;28;20409;-75
2023/07/19 13:43:46;;;;;;;4.55;3.88;;;;;;;;;;5018939;28;20034;-76
2023/07/19 13:46:11;;;;;;;4.20;3.78;;;;;;;;;;5015152;28;20034;-76
2023/07/19 13:48:36;;;;;;;8.98;3.92;;;;;;;;;;5021039;28;20018;-75
2023/07/19 13:51:03;;;;;;;4.22;3.83;;;;;;;;;;5016992;28;20493;-76
2023/07/19 13:53:29;;;;;;;8.25;4.22;;;;;;;;;;5012915;28;20386;-75
2023/07/19 13:55:55;;;;;;;4.88;3.78;;;;;;;;;;5021050;28;20056;-75
2023/07/19 13:58:20;;;;;;;4.97;3.80;;;;;;;;;;5012960;28;20398;-75
2023/07/19 14:00:46;;;;;;;6.07;4.10;;;;;;;;;;5011102;28;20036;-75
2023/07/19 14:03:12;;;;;;;5.72;4.15;;;;;;;;;;5021486;28;20040;-78
2023/07/19 14:05:38;;;;;;;4.57;3.65;;;;;;;;;;5018214;28;20030;-75
2023/07/19 14:08:04;;;;;;;4.00;3.60;;;;;;;;;;5018043;28;20084;-75
2023/07/19 14:10:29;;;;;;;14.10;4.95;;;;;;;;;;5009382;28;20033;-76
2023/07/19 14:12:55;;;;;;;8.82;4.28;;;;;;;;;;5011285;28;20489;-75
2023/07/19 14:15:21;;;;;;;3.90;3.42;;;;;;;;;;5029301;28;20083;-75
2023/07/19 14:17:46;;;;;;;4.43;3.80;;;;;;;;;;5019547;28;20490;-77
2023/07/19 14:20:12;;;;;;;5.72;3.95;;;;;;;;;;5012009;28;20486;-77
2023/07/19 14:22:38;;;;;;;8.98;4.03;;;;;;;;;;5011175;28;20410;-77
2023/07/19 14:25:04;;;;;;;4.95;4.00;;;;;;;;;;5012780;28;20035;-77
2023/07/19 14:27:29;;;;;;;4.78;3.65;;;;;;;;;;5017920;28;20472;-77
2023/07/19 14:29:56;;;;;;;5.53;3.97;;;;;;;;;;5014345;28;20018;-77
2023/07/19 14:32:21;;;;;;;16.08;4.10;;;;;;;;;;5012586;28;20037;-77